createdAt,value
2022-09-29T00:00:05.283Z,24.3
2022-09-29T00:01:06.923Z,24.3
2022-09-29T00:02:08.581Z,24.3
2022-09-29T00:03:10.872Z,24.3
2022-09-29T00:04:12.959Z,24.3
2022-09-29T00:05:14.607Z,24.3
2022-09-29T00:06:16.326Z,24.3
2022-09-29T00:07:17.987Z,24.3
2022-09-29T00:08:19.640Z,24.3
2022-09-29T00:09:24.308Z,24.3
2022-09-29T00:10:26.008Z,24.3
2022-09-29T00:11:27.697Z,24.3
2022-09-29T00:12:29.298Z,24.3
2022-09-29T00:13:30.893Z,24.3
2022-09-29T00:14:32.512Z,24.3
2022-09-29T00:15:34.044Z,24.3
2022-09-29T00:16:35.744Z,24.3
2022-09-29T00:17:37.890Z,24.3
2022-09-29T00:18:39.521Z,24.3
2022-09-29T00:19:41.166Z,24.3
2022-09-29T00:20:42.700Z,24.3
2022-09-29T00:21:44.287Z,24.3
2022-09-29T00:22:45.931Z,24.3
2022-09-29T00:23:47.543Z,24.3
2022-09-29T00:24:49.552Z,24.3
2022-09-29T00:25:51.357Z,24.3
2022-09-29T00:26:52.896Z,24.3
2022-09-29T00:27:54.482Z,24.3
2022-09-29T00:28:56.026Z,24.2
2022-09-29T00:29:57.561Z,24.3
2022-09-29T00:30:59.164Z,24.2
2022-09-29T00:32:00.866Z,24.2
2022-09-29T00:33:02.852Z,24.2
2022-09-29T00:34:04.565Z,24.2
2022-09-29T00:35:06.232Z,24.2
2022-09-29T00:36:07.980Z,24.2
2022-09-29T00:37:09.681Z,24.2
2022-09-29T00:38:11.365Z,24.2
2022-09-29T00:39:12.994Z,24.2
2022-09-29T00:40:14.578Z,24.2
2022-09-29T00:41:16.387Z,24.2
2022-09-29T00:42:17.997Z,24.2
2022-09-29T00:43:19.667Z,24.2
2022-09-29T00:44:21.312Z,24.3
2022-09-29T00:45:23.052Z,24.3
2022-09-29T00:46:25.364Z,24.3
2022-09-29T00:47:26.924Z,24.3
2022-09-29T00:48:28.465Z,24.3
2022-09-29T00:49:30.152Z,24.3
2022-09-29T00:50:31.791Z,24.3
2022-09-29T00:51:33.405Z,24.3
2022-09-29T00:52:35.195Z,24.3
2022-09-29T00:53:36.880Z,24.3
2022-09-29T00:54:38.450Z,24.2
2022-09-29T00:55:40.161Z,24.2
2022-09-29T00:56:41.882Z,24.2
2022-09-29T00:57:43.678Z,24.2
2022-09-29T00:58:45.323Z,24.2
2022-09-29T00:59:46.923Z,24.2
2022-09-29T01:00:48.542Z,24.2
2022-09-29T01:01:50.748Z,24.2
2022-09-29T01:02:52.890Z,24.2
2022-09-29T01:03:54.603Z,24.2
2022-09-29T01:04:56.247Z,24.2
2022-09-29T01:05:57.805Z,24.2
2022-09-29T01:06:59.402Z,24.2
2022-09-29T01:08:01.032Z,24.2
2022-09-29T01:09:02.628Z,24.2
2022-09-29T01:10:04.286Z,24.2
2022-09-29T01:11:06.013Z,24.2
2022-09-29T01:12:07.889Z,24.1
2022-09-29T01:13:09.438Z,24.2
2022-09-29T01:14:11.018Z,24.1
2022-09-29T01:15:12.929Z,24.1
2022-09-29T01:16:14.526Z,24.2
2022-09-29T01:17:16.731Z,24.2
2022-09-29T01:18:18.447Z,24.1
2022-09-29T01:19:20.051Z,24.1
2022-09-29T01:20:21.769Z,24.1
2022-09-29T01:21:23.341Z,24.1
2022-09-29T01:22:24.991Z,24.1
2022-09-29T01:23:26.630Z,24.1
2022-09-29T01:24:28.281Z,24.1
2022-09-29T01:25:29.841Z,24.1
2022-09-29T01:26:31.467Z,24.1
2022-09-29T01:27:33.232Z,24.1
2022-09-29T01:28:34.954Z,24.1
2022-09-29T01:29:36.652Z,24.1
2022-09-29T01:30:38.443Z,24.1
2022-09-29T01:31:40.114Z,24.1
2022-09-29T01:32:42.163Z,24.1
2022-09-29T01:33:43.739Z,24.1
2022-09-29T01:34:45.361Z,24.1
2022-09-29T01:35:46.909Z,24.1
2022-09-29T01:36:48.643Z,24.1
2022-09-29T01:37:50.289Z,24.1
2022-09-29T01:38:51.938Z,24.1
2022-09-29T01:39:53.565Z,24.1
2022-09-29T01:40:55.244Z,24.1
2022-09-29T01:41:57.452Z,24.1
2022-09-29T01:42:59.199Z,24.1
2022-09-29T01:44:00.854Z,24.1
2022-09-29T01:45:02.696Z,24.1
2022-09-29T01:46:04.509Z,24.1
2022-09-29T01:47:06.637Z,24.1
2022-09-29T01:48:08.183Z,24.1
2022-09-29T01:49:09.729Z,24.1
2022-09-29T01:50:14.427Z,24.1
2022-09-29T01:51:15.947Z,24.1
2022-09-29T01:52:17.546Z,24
2022-09-29T01:53:19.137Z,24.1
2022-09-29T01:54:20.942Z,24
2022-09-29T01:55:22.633Z,24
2022-09-29T01:56:24.242Z,24.1
2022-09-29T01:57:25.951Z,24
2022-09-29T01:58:27.705Z,24
2022-09-29T01:59:29.529Z,24.1
2022-09-29T02:00:31.132Z,24
2022-09-29T02:01:33.330Z,24
2022-09-29T02:02:34.929Z,24.1
2022-09-29T02:03:36.520Z,24.1
2022-09-29T02:04:38.109Z,24.1
2022-09-29T02:05:39.776Z,24
2022-09-29T02:06:41.540Z,24
2022-09-29T02:07:43.245Z,24
2022-09-29T02:08:44.877Z,24
2022-09-29T02:09:46.545Z,24
2022-09-29T02:10:48.327Z,24
2022-09-29T02:11:49.973Z,24
2022-09-29T02:12:51.609Z,24
2022-09-29T02:13:53.363Z,24
2022-09-29T02:14:55.036Z,24
2022-09-29T02:15:56.583Z,24
2022-09-29T02:16:58.537Z,24
2022-09-29T02:18:00.182Z,24
2022-09-29T02:19:01.830Z,24
2022-09-29T02:20:03.384Z,24
2022-09-29T02:21:04.989Z,24
2022-09-29T02:22:06.596Z,24
2022-09-29T02:23:08.285Z,24
2022-09-29T02:24:09.877Z,24
2022-09-29T02:25:11.624Z,24
2022-09-29T02:26:13.246Z,23.9
2022-09-29T02:27:14.803Z,23.9
2022-09-29T02:28:16.574Z,23.9
2022-09-29T02:29:18.351Z,23.9
2022-09-29T02:30:19.903Z,23.9
2022-09-29T02:31:21.632Z,23.9
2022-09-29T02:32:23.584Z,23.9
2022-09-29T02:33:25.209Z,23.9
2022-09-29T02:34:26.809Z,23.9
2022-09-29T02:35:28.344Z,23.9
2022-09-29T02:36:29.924Z,23.9
2022-09-29T02:37:31.456Z,23.9
2022-09-29T02:38:33.040Z,23.9
2022-09-29T02:39:34.738Z,23.9
2022-09-29T02:40:36.375Z,23.9
2022-09-29T02:41:38.395Z,23.9
2022-09-29T02:42:39.918Z,23.9
2022-09-29T02:43:41.571Z,23.9
2022-09-29T02:44:43.332Z,23.9
2022-09-29T02:45:44.928Z,23.9
2022-09-29T02:46:46.930Z,23.9
2022-09-29T02:47:48.541Z,23.9
2022-09-29T02:48:53.295Z,23.9
2022-09-29T02:49:54.845Z,23.9
2022-09-29T02:50:56.733Z,23.9
2022-09-29T02:51:58.346Z,23.9
2022-09-29T02:52:59.920Z,23.9
2022-09-29T02:54:01.501Z,23.9
2022-09-29T02:55:03.155Z,23.9
2022-09-29T02:56:04.997Z,23.9
2022-09-29T02:57:06.609Z,23.9
2022-09-29T02:58:08.255Z,23.9
2022-09-29T02:59:09.921Z,23.9
2022-09-29T03:00:11.734Z,23.9
2022-09-29T03:01:13.456Z,23.9
2022-09-29T03:02:15.560Z,23.9
2022-09-29T03:03:17.172Z,23.9
2022-09-29T03:04:19.240Z,23.9
2022-09-29T03:05:21.460Z,23.9
2022-09-29T03:06:22.986Z,23.9
2022-09-29T03:07:24.688Z,23.9
2022-09-29T03:08:26.405Z,23.9
2022-09-29T03:09:28.141Z,23.9
2022-09-29T03:10:30.432Z,23.9
2022-09-29T03:11:32.123Z,23.9
2022-09-29T03:12:33.795Z,23.8
2022-09-29T03:13:35.328Z,23.7
2022-09-29T03:14:37.072Z,23.6
2022-09-29T03:15:38.834Z,23.6
2022-09-29T03:16:40.548Z,23.5
2022-09-29T03:17:42.542Z,23.5
2022-09-29T03:18:44.084Z,23.5
2022-09-29T03:19:45.893Z,23.4
2022-09-29T03:20:47.588Z,23.4
2022-09-29T03:21:49.193Z,23.3
2022-09-29T03:22:50.726Z,23.3
2022-09-29T03:23:56.829Z,23.2
2022-09-29T03:24:59.418Z,23.2
2022-09-29T03:26:01.036Z,23.2
2022-09-29T03:27:02.651Z,23.2
2022-09-29T03:28:04.360Z,23.2
2022-09-29T03:29:06.000Z,23.2
2022-09-29T03:30:07.703Z,23.2
2022-09-29T03:31:09.513Z,23.2
2022-09-29T03:32:11.832Z,23.2
2022-09-29T03:33:13.410Z,23.2
2022-09-29T03:34:15.069Z,23.2
2022-09-29T03:35:16.698Z,23.2
2022-09-29T03:36:18.235Z,23.2
2022-09-29T03:37:20.043Z,23.2
2022-09-29T03:38:21.547Z,23.3
2022-09-29T03:39:23.110Z,23.3
2022-09-29T03:40:24.906Z,23.3
2022-09-29T03:41:27.004Z,23.3
2022-09-29T03:42:28.577Z,23.2
2022-09-29T03:43:30.347Z,23.2
2022-09-29T03:44:32.169Z,23.2
2022-09-29T03:45:34.070Z,23.1
2022-09-29T03:46:36.187Z,23.1
2022-09-29T03:47:37.769Z,23.1
2022-09-29T03:48:39.383Z,23.2
2022-09-29T03:49:40.936Z,23.1
2022-09-29T03:50:42.541Z,23.1
2022-09-29T03:51:44.093Z,23.2
2022-09-29T03:52:45.606Z,23.2
2022-09-29T03:53:47.324Z,23.1
2022-09-29T03:54:48.873Z,23.2
2022-09-29T03:55:50.512Z,23.2
2022-09-29T03:56:52.052Z,23.2
2022-09-29T03:57:53.793Z,23.2
2022-09-29T03:58:55.531Z,23.2
2022-09-29T03:59:57.175Z,23.3
2022-09-29T04:00:58.931Z,23.3
2022-09-29T04:02:01.025Z,23.3
2022-09-29T04:03:03.206Z,23.3
2022-09-29T04:04:04.836Z,23.3
2022-09-29T04:05:06.465Z,23.3
2022-09-29T04:06:08.066Z,23.3
2022-09-29T04:07:09.711Z,23.3
2022-09-29T04:08:11.357Z,23.3
2022-09-29T04:09:12.944Z,23.3
2022-09-29T04:10:14.651Z,23.3
2022-09-29T04:11:16.189Z,23.3
2022-09-29T04:12:17.744Z,23.4
2022-09-29T04:13:20.305Z,23.4
2022-09-29T04:14:22.029Z,23.4
2022-09-29T04:15:23.645Z,23.4
2022-09-29T04:16:25.369Z,23.4
2022-09-29T04:17:27.478Z,23.5
2022-09-29T04:18:29.025Z,23.5
2022-09-29T04:19:30.637Z,23.5
2022-09-29T04:20:32.348Z,23.5
2022-09-29T04:21:33.892Z,23.5
2022-09-29T04:22:35.484Z,23.6
2022-09-29T04:23:37.027Z,23.6
2022-09-29T04:24:38.654Z,23.7
2022-09-29T04:25:40.544Z,23.7
2022-09-29T04:26:42.171Z,23.6
2022-09-29T04:27:43.875Z,23.6
2022-09-29T04:28:45.466Z,23.5
2022-09-29T04:29:47.069Z,23.5
2022-09-29T04:30:48.681Z,23.6
2022-09-29T04:31:50.421Z,23.6
2022-09-29T04:32:52.669Z,23.5
2022-09-29T04:33:54.233Z,23.5
2022-09-29T04:34:55.782Z,23.5
2022-09-29T04:35:57.355Z,23.4
2022-09-29T04:36:58.933Z,23.4
2022-09-29T04:38:00.564Z,23.5
2022-09-29T04:39:02.095Z,23.5
2022-09-29T04:40:03.773Z,23.5
2022-09-29T04:41:05.375Z,23.5
2022-09-29T04:42:07.749Z,23.4
2022-09-29T04:43:09.438Z,23.5
2022-09-29T04:44:11.062Z,23.5
2022-09-29T04:45:12.718Z,23.5
2022-09-29T04:46:14.422Z,23.5
2022-09-29T04:47:16.583Z,23.5
2022-09-29T04:48:21.148Z,23.5
2022-09-29T04:49:22.687Z,23.6
2022-09-29T04:50:24.276Z,23.5
2022-09-29T04:51:26.064Z,23.5
2022-09-29T04:52:27.707Z,23.5
2022-09-29T04:53:29.336Z,23.4
2022-09-29T04:54:34.183Z,23.4
2022-09-29T04:55:39.735Z,23.4
2022-09-29T04:56:41.383Z,23.5
2022-09-29T04:57:42.965Z,23.5
2022-09-29T04:58:44.656Z,23.5
2022-09-29T04:59:46.331Z,23.5
2022-09-29T05:00:47.957Z,23.6
2022-09-29T05:01:50.079Z,23.6
2022-09-29T05:02:52.151Z,23.6
2022-09-29T05:03:56.528Z,23.6
2022-09-29T05:04:58.216Z,23.6
2022-09-29T05:05:59.804Z,23.7
2022-09-29T05:07:01.418Z,23.7
2022-09-29T05:08:03.071Z,23.7
2022-09-29T05:09:04.616Z,23.7
2022-09-29T05:10:06.261Z,23.8
2022-09-29T05:11:07.829Z,23.8
2022-09-29T05:12:09.638Z,23.8
2022-09-29T05:13:11.215Z,23.9
2022-09-29T05:14:12.758Z,23.9
2022-09-29T05:15:19.234Z,24
2022-09-29T05:16:27.799Z,24
2022-09-29T05:17:29.623Z,24.1
2022-09-29T05:18:31.475Z,24.1
2022-09-29T05:19:33.298Z,24.1
2022-09-29T05:20:41.886Z,24.1
2022-09-29T05:22:30.279Z,24.2
2022-09-29T05:23:31.820Z,24.2
2022-09-29T05:24:33.423Z,24.2
2022-09-29T05:25:35.060Z,24.2
2022-09-29T05:26:36.743Z,24.2
2022-09-29T05:27:38.348Z,24.2
2022-09-29T05:28:39.959Z,24.2
2022-09-29T05:29:41.547Z,24.3
2022-09-29T05:30:43.207Z,24.3
2022-09-29T05:31:44.998Z,24.3
2022-09-29T05:32:47.208Z,24.4
2022-09-29T05:33:49.087Z,24.4
2022-09-29T05:34:50.940Z,24.4
2022-09-29T05:35:52.483Z,24.5
2022-09-29T05:36:54.007Z,24.5
2022-09-29T05:37:55.990Z,24.5
2022-09-29T05:38:57.561Z,24.5
2022-09-29T05:39:59.129Z,24.6
2022-09-29T05:41:00.733Z,24.6
2022-09-29T05:42:02.560Z,24.6
2022-09-29T05:43:04.154Z,24.7
2022-09-29T05:44:05.782Z,24.7
2022-09-29T05:45:07.399Z,24.7
2022-09-29T05:46:09.104Z,24.7
2022-09-29T05:47:11.368Z,24.6
2022-09-29T05:48:13.002Z,24.6
2022-09-29T05:49:14.716Z,24.6
2022-09-29T05:50:16.891Z,24.5
2022-09-29T05:51:22.532Z,24.5
2022-09-29T05:52:24.992Z,24.5
2022-09-29T05:53:26.595Z,24.6
2022-09-29T05:54:28.193Z,24.6
2022-09-29T05:55:29.743Z,24.7
2022-09-29T05:56:31.289Z,24.8
2022-09-29T05:57:32.899Z,24.9
2022-09-29T05:58:34.421Z,25
2022-09-29T05:59:36.010Z,25
2022-09-29T06:00:37.593Z,25
2022-09-29T06:01:39.371Z,25
2022-09-29T06:02:41.517Z,25.1
2022-09-29T06:03:43.098Z,25.1
2022-09-29T06:04:44.789Z,25.2
2022-09-29T06:05:46.540Z,25.2
2022-09-29T06:06:48.154Z,25.3
2022-09-29T06:07:49.875Z,25.3
2022-09-29T06:08:51.497Z,25.3
2022-09-29T06:09:53.240Z,25.3
2022-09-29T06:10:54.816Z,25.4
2022-09-29T06:11:56.380Z,25.4
2022-09-29T06:12:57.924Z,25.4
2022-09-29T06:13:59.473Z,25.3
2022-09-29T06:15:01.063Z,25.3
2022-09-29T06:16:02.850Z,25.2
2022-09-29T06:17:04.868Z,25.3
2022-09-29T06:18:06.431Z,25.4
2022-09-29T06:19:07.977Z,25.4
2022-09-29T06:20:12.621Z,25.5
2022-09-29T06:21:14.336Z,25.5
2022-09-29T06:22:16.064Z,25.5
2022-09-29T06:23:17.685Z,25.5
2022-09-29T06:24:19.347Z,25.5
2022-09-29T06:25:21.112Z,25.6
2022-09-29T06:26:24.081Z,25.6
2022-09-29T06:27:26.427Z,25.7
2022-09-29T06:28:28.016Z,25.7
2022-09-29T06:29:29.720Z,25.7
2022-09-29T06:30:31.335Z,25.7
2022-09-29T06:31:33.979Z,25.8
2022-09-29T06:32:36.104Z,25.8
2022-09-29T06:33:37.768Z,25.8
2022-09-29T06:34:39.646Z,25.8
2022-09-29T06:35:41.396Z,25.9
2022-09-29T06:36:42.972Z,25.9
2022-09-29T06:37:44.712Z,25.9
2022-09-29T06:38:46.439Z,25.9
2022-09-29T06:39:48.208Z,25.9
2022-09-29T06:40:49.866Z,25.8
2022-09-29T06:41:52.075Z,25.8
2022-09-29T06:42:53.806Z,25.7
2022-09-29T06:43:55.349Z,25.7
2022-09-29T06:44:57.079Z,25.8
2022-09-29T06:45:58.677Z,25.8
2022-09-29T06:47:00.747Z,25.9
2022-09-29T06:48:02.327Z,25.9
2022-09-29T06:49:03.910Z,26
2022-09-29T06:50:07.122Z,26
2022-09-29T06:51:40.876Z,25.9
2022-09-29T06:52:58.750Z,25.8
2022-09-29T06:54:11.810Z,25.9
2022-09-29T06:55:14.292Z,25.9
2022-09-29T06:56:15.940Z,26
2022-09-29T06:57:17.813Z,26
2022-09-29T06:58:19.436Z,26
2022-09-29T06:59:21.265Z,26
2022-09-29T07:00:23.873Z,26
2022-09-29T07:01:25.789Z,26
2022-09-29T07:02:27.818Z,26.1
2022-09-29T07:03:29.961Z,26.1
2022-09-29T07:04:31.607Z,26.1
2022-09-29T07:05:33.170Z,26
2022-09-29T07:06:34.818Z,26
2022-09-29T07:07:36.478Z,26
2022-09-29T07:08:38.366Z,26
2022-09-29T07:09:40.537Z,26
2022-09-29T07:10:42.376Z,26
2022-09-29T07:11:44.111Z,25.9
2022-09-29T07:12:45.753Z,25.8
2022-09-29T07:13:50.221Z,25.8
2022-09-29T07:14:56.872Z,25.9
2022-09-29T07:15:58.590Z,25.9
2022-09-29T07:17:00.250Z,26
2022-09-29T07:18:01.942Z,26
2022-09-29T07:19:03.607Z,26
2022-09-29T07:20:05.331Z,26
2022-09-29T07:21:07.084Z,26
2022-09-29T07:22:08.801Z,26
2022-09-29T07:23:10.450Z,26
2022-09-29T07:24:12.231Z,26
2022-09-29T07:25:23.153Z,26
2022-09-29T07:26:54.097Z,26.1
2022-09-29T07:27:55.917Z,26.1
2022-09-29T07:28:57.796Z,26.1
2022-09-29T07:30:03.896Z,26
2022-09-29T07:31:14.013Z,25.9
2022-09-29T07:32:26.554Z,26
2022-09-29T07:33:38.113Z,25.9
2022-09-29T07:34:41.342Z,26
2022-09-29T07:35:42.963Z,25.9
2022-09-29T07:36:44.601Z,25.8
2022-09-29T07:37:46.618Z,25.8
2022-09-29T07:38:48.334Z,25.8
2022-09-29T07:39:50.161Z,25.7
2022-09-29T07:40:51.776Z,25.7
2022-09-29T07:41:53.762Z,25.7
2022-09-29T07:42:55.350Z,25.7
2022-09-29T07:43:56.947Z,25.6
2022-09-29T07:44:58.660Z,25.7
2022-09-29T07:46:00.660Z,25.7
2022-09-29T07:47:03.103Z,25.7
2022-09-29T07:48:04.854Z,25.7
2022-09-29T07:49:06.404Z,25.7
2022-09-29T07:50:08.049Z,25.8
2022-09-29T07:51:09.705Z,25.8
2022-09-29T07:52:11.469Z,25.9
2022-09-29T07:53:13.628Z,25.9
2022-09-29T07:54:15.365Z,25.9
2022-09-29T07:55:17.604Z,25.9
2022-09-29T07:56:19.221Z,25.9
2022-09-29T07:57:20.850Z,25.9
2022-09-29T07:58:22.451Z,25.9
2022-09-29T07:59:24.023Z,26
2022-09-29T08:00:25.609Z,26
2022-09-29T08:01:27.336Z,26
2022-09-29T08:02:29.296Z,26
2022-09-29T08:03:31.471Z,26
2022-09-29T08:04:33.150Z,26
2022-09-29T08:05:34.820Z,26.1
2022-09-29T08:06:36.647Z,26.1
2022-09-29T08:07:38.265Z,26.1
2022-09-29T08:08:41.597Z,26.1
2022-09-29T08:10:15.247Z,26.1
2022-09-29T08:11:28.128Z,26.1
2022-09-29T08:12:42.246Z,26.2
2022-09-29T08:13:46.226Z,26.2
2022-09-29T08:14:47.926Z,26.3
2022-09-29T08:15:49.531Z,26.2
2022-09-29T08:16:51.327Z,26.1
2022-09-29T08:17:53.295Z,26.1
2022-09-29T08:18:54.948Z,26.1
2022-09-29T08:19:56.510Z,26.1
2022-09-29T08:20:59.916Z,26.1
2022-09-29T08:22:05.681Z,26.1
2022-09-29T08:23:07.288Z,26.1
2022-09-29T08:24:09.075Z,26.1
2022-09-29T08:25:10.682Z,26.2
2022-09-29T08:26:12.197Z,26.2
2022-09-29T08:27:18.482Z,26.2
2022-09-29T08:28:30.105Z,26.1
2022-09-29T08:29:43.646Z,26.2
2022-09-29T08:30:48.487Z,26.2
2022-09-29T08:31:50.335Z,26.2
2022-09-29T08:32:52.245Z,26.2
2022-09-29T08:33:53.897Z,26.2
2022-09-29T08:34:55.504Z,26.2
2022-09-29T08:35:57.220Z,26.2
2022-09-29T08:36:58.900Z,26.2
2022-09-29T08:38:00.570Z,26.2
2022-09-29T08:39:02.298Z,26.2
2022-09-29T08:40:03.906Z,26.2
2022-09-29T08:41:05.597Z,26.2
2022-09-29T08:42:07.767Z,26.2
2022-09-29T08:43:09.518Z,26.2
2022-09-29T08:44:25.806Z,26.3
2022-09-29T08:45:53.082Z,26.3
2022-09-29T08:47:09.537Z,26.4
2022-09-29T08:48:21.338Z,26.4
2022-09-29T08:49:32.776Z,26.3
2022-09-29T08:50:35.366Z,26.3
2022-09-29T08:51:42.155Z,26.4
2022-09-29T08:52:51.748Z,26.4
2022-09-29T08:54:02.222Z,26.4
2022-09-29T08:55:16.952Z,26.4
2022-09-29T08:56:23.947Z,26.3
2022-09-29T08:57:25.585Z,26.3
2022-09-29T08:58:27.437Z,26.2
2022-09-29T08:59:29.145Z,26.1
2022-09-29T09:00:30.891Z,26
2022-09-29T09:01:32.487Z,26
2022-09-29T09:02:34.424Z,26
2022-09-29T09:03:36.588Z,26.1
2022-09-29T09:04:38.142Z,26.1
2022-09-29T09:05:39.813Z,26.1
2022-09-29T09:06:41.793Z,26.1
2022-09-29T09:07:43.590Z,26.2
2022-09-29T09:08:45.467Z,26.3
2022-09-29T09:09:47.535Z,26.3
2022-09-29T09:10:49.393Z,26.3
2022-09-29T09:11:51.124Z,26.3
2022-09-29T09:12:52.803Z,26.4
2022-09-29T09:13:54.638Z,26.4
2022-09-29T09:14:56.282Z,26.4
2022-09-29T09:15:57.894Z,26.4
2022-09-29T09:16:59.555Z,26.4
2022-09-29T09:18:01.799Z,26.4
2022-09-29T09:19:04.807Z,26.4
2022-09-29T09:20:07.203Z,26.4
2022-09-29T09:21:08.871Z,26.4
2022-09-29T09:22:10.503Z,26.4
2022-09-29T09:23:12.074Z,26.5
2022-09-29T09:24:13.741Z,26.5
2022-09-29T09:25:15.416Z,26.4
2022-09-29T09:26:19.958Z,26.4
2022-09-29T09:27:21.815Z,26.4
2022-09-29T09:28:23.627Z,26.4
2022-09-29T09:29:25.403Z,26.4
2022-09-29T09:30:27.101Z,26.5
2022-09-29T09:31:29.039Z,26.5
2022-09-29T09:32:30.582Z,26.5
2022-09-29T09:33:32.215Z,26.5
2022-09-29T09:34:43.331Z,26.5
2022-09-29T09:35:56.135Z,26.5
2022-09-29T09:37:07.476Z,26.5
2022-09-29T09:38:10.264Z,26.5
2022-09-29T09:39:11.946Z,26.5
2022-09-29T09:40:13.722Z,26.6
2022-09-29T09:41:15.868Z,26.6
2022-09-29T09:42:17.601Z,26.6
2022-09-29T09:43:19.303Z,26.5
2022-09-29T09:44:21.112Z,26.5
2022-09-29T09:45:23.465Z,26.6
2022-09-29T09:46:25.146Z,26.5
2022-09-29T09:47:35.759Z,26.6
2022-09-29T09:48:37.298Z,26.6
2022-09-29T09:49:38.847Z,26.6
2022-09-29T09:50:40.390Z,26.5
2022-09-29T09:51:42.247Z,26.5
2022-09-29T09:52:47.366Z,26.5
2022-09-29T09:53:48.952Z,26.5
2022-09-29T09:54:50.554Z,26.6
2022-09-29T09:55:52.125Z,26.5
2022-09-29T09:56:53.766Z,26.6
2022-09-29T09:57:55.357Z,26.6
2022-09-29T09:58:56.980Z,26.6
2022-09-29T09:59:58.534Z,26.6
2022-09-29T10:01:00.214Z,26.7
2022-09-29T10:02:02.384Z,26.8
2022-09-29T10:03:04.326Z,26.7
2022-09-29T10:04:05.903Z,26.7
2022-09-29T10:05:08.888Z,26.6
2022-09-29T10:06:11.313Z,26.6
2022-09-29T10:07:13.002Z,26.6
2022-09-29T10:08:14.628Z,26.6
2022-09-29T10:09:16.372Z,26.6
2022-09-29T10:10:18.822Z,26.6
2022-09-29T10:11:20.431Z,26.6
2022-09-29T10:12:22.108Z,26.5
2022-09-29T10:13:23.675Z,26.5
2022-09-29T10:14:25.407Z,26.5
2022-09-29T10:15:27.309Z,26.5
2022-09-29T10:16:29.476Z,26.5
2022-09-29T10:17:31.456Z,26.5
2022-09-29T10:18:32.983Z,26.6
2022-09-29T10:19:34.648Z,26.6
2022-09-29T10:20:36.234Z,26.5
2022-09-29T10:21:37.850Z,26.6
2022-09-29T10:22:39.472Z,26.6
2022-09-29T10:23:41.242Z,26.6
2022-09-29T10:24:42.995Z,26.6
2022-09-29T10:25:44.611Z,26.6
2022-09-29T10:26:46.299Z,26.6
2022-09-29T10:27:47.986Z,26.6
2022-09-29T10:28:49.589Z,26.6
2022-09-29T10:29:51.931Z,26.5
2022-09-29T10:30:53.772Z,26.5
2022-09-29T10:31:55.720Z,26.6
2022-09-29T10:32:57.824Z,26.6
2022-09-29T10:33:59.566Z,26.6
2022-09-29T10:35:01.437Z,26.7
2022-09-29T10:36:03.195Z,26.7
2022-09-29T10:37:04.865Z,26.7
2022-09-29T10:38:06.638Z,26.7
2022-09-29T10:39:08.469Z,26.7
2022-09-29T10:40:10.248Z,26.7
2022-09-29T10:41:12.078Z,26.8
2022-09-29T10:42:13.732Z,26.8
2022-09-29T10:43:15.424Z,26.9
2022-09-29T10:44:17.127Z,26.8
2022-09-29T10:45:19.158Z,26.8
2022-09-29T10:46:21.139Z,26.8
2022-09-29T10:47:23.368Z,26.8
2022-09-29T10:48:24.977Z,26.8
2022-09-29T10:49:26.602Z,26.8
2022-09-29T10:50:28.993Z,26.8
2022-09-29T10:51:39.270Z,26.8
2022-09-29T10:52:40.849Z,26.8
2022-09-29T10:53:42.764Z,26.8
2022-09-29T10:54:44.724Z,26.8
2022-09-29T10:55:46.338Z,26.8
2022-09-29T10:56:47.928Z,26.8
2022-09-29T10:57:49.591Z,26.9
2022-09-29T10:59:00.190Z,26.9
2022-09-29T11:00:07.891Z,26.9
2022-09-29T11:01:10.089Z,27
2022-09-29T11:02:12.013Z,27
2022-09-29T11:03:13.925Z,27
2022-09-29T11:04:15.527Z,26.9
2022-09-29T11:05:17.549Z,26.9
2022-09-29T11:06:19.316Z,26.9
2022-09-29T11:07:20.889Z,26.8
2022-09-29T11:08:22.504Z,26.8
2022-09-29T11:09:24.315Z,26.8
2022-09-29T11:10:26.492Z,27
2022-09-29T11:11:28.040Z,27
2022-09-29T11:12:29.596Z,27
2022-09-29T11:13:31.266Z,26.9
2022-09-29T11:14:32.914Z,27
2022-09-29T11:15:34.739Z,26.8
2022-09-29T11:16:36.356Z,26.8
2022-09-29T11:17:38.313Z,26.7
2022-09-29T11:18:40.161Z,26.7
2022-09-29T11:19:42.029Z,26.6
2022-09-29T11:20:43.934Z,26.6
2022-09-29T11:21:45.561Z,26.6
2022-09-29T11:22:47.217Z,26.8
2022-09-29T11:23:49.077Z,26.8
2022-09-29T11:24:50.639Z,26.8
2022-09-29T11:25:52.282Z,26.8
2022-09-29T11:26:53.891Z,26.8
2022-09-29T11:27:55.601Z,26.8
2022-09-29T11:28:57.271Z,26.8
2022-09-29T11:29:58.903Z,26.8
2022-09-29T11:31:00.513Z,26.8
2022-09-29T11:32:02.692Z,26.8
2022-09-29T11:33:04.521Z,26.8
2022-09-29T11:34:06.288Z,26.9
2022-09-29T11:35:07.929Z,26.9
2022-09-29T11:36:09.781Z,26.9
2022-09-29T11:37:11.530Z,26.9
2022-09-29T11:38:13.455Z,26.9
2022-09-29T11:39:15.407Z,26.9
2022-09-29T11:40:17.439Z,27
2022-09-29T11:41:19.254Z,27.3
2022-09-29T11:42:21.594Z,27.4
2022-09-29T11:43:23.513Z,27.4
2022-09-29T11:44:25.419Z,27.5
2022-09-29T11:45:27.228Z,27.5
2022-09-29T11:46:29.024Z,27.4
2022-09-29T11:47:30.855Z,27.2
2022-09-29T11:48:32.747Z,27.1
2022-09-29T11:49:34.538Z,27
2022-09-29T11:50:36.295Z,27
2022-09-29T11:51:38.216Z,26.9
2022-09-29T11:52:39.970Z,26.9
2022-09-29T11:53:41.688Z,26.9
2022-09-29T11:54:43.490Z,26.8
2022-09-29T11:55:45.359Z,26.8
2022-09-29T11:56:47.204Z,26.8
2022-09-29T11:57:49.055Z,26.9
2022-09-29T11:58:50.896Z,26.8
2022-09-29T11:59:52.787Z,26.9
2022-09-29T12:00:54.393Z,26.9
2022-09-29T12:01:56.264Z,26.9
2022-09-29T12:02:58.316Z,26.9
2022-09-29T12:04:00.544Z,26.9
2022-09-29T12:05:02.393Z,26.9
2022-09-29T12:06:04.361Z,26.9
2022-09-29T12:07:06.137Z,26.9
2022-09-29T12:08:07.948Z,26.9
2022-09-29T12:09:09.738Z,26.9
2022-09-29T12:10:11.747Z,26.9
2022-09-29T12:11:41.844Z,26.8
2022-09-29T12:13:25.799Z,26.9
2022-09-29T12:14:27.659Z,26.9
2022-09-29T12:15:29.521Z,26.9
2022-09-29T12:16:31.326Z,26.9
2022-09-29T12:17:33.404Z,26.9
2022-09-29T12:18:35.351Z,26.8
2022-09-29T12:19:37.166Z,26.8
2022-09-29T12:20:39.097Z,26.8
2022-09-29T12:21:41.014Z,26.8
2022-09-29T12:22:44.753Z,26.8
2022-09-29T12:23:46.957Z,26.7
2022-09-29T12:24:48.811Z,26.7
2022-09-29T12:25:50.735Z,26.6
2022-09-29T12:26:52.620Z,26.5
2022-09-29T12:27:54.468Z,26.5
2022-09-29T12:28:56.316Z,26.5
2022-09-29T12:29:58.058Z,26.5
2022-09-29T12:31:00.022Z,26.5
2022-09-29T12:32:02.071Z,26.5
2022-09-29T12:33:03.922Z,26.6
2022-09-29T12:34:05.602Z,26.6
2022-09-29T12:35:07.262Z,26.6
2022-09-29T12:36:09.157Z,26.6
2022-09-29T12:37:11.011Z,26.5
2022-09-29T12:38:12.798Z,26.5
2022-09-29T12:39:14.553Z,26.5
2022-09-29T12:40:16.504Z,26.5
2022-09-29T12:41:18.306Z,26.5
2022-09-29T12:42:20.088Z,26.5
2022-09-29T12:43:21.903Z,26.6
2022-09-29T12:44:23.729Z,26.6
2022-09-29T12:45:25.573Z,26.6
2022-09-29T12:46:27.490Z,26.6
2022-09-29T12:47:29.393Z,26.6
2022-09-29T12:48:31.156Z,26.6
2022-09-29T12:49:33.004Z,26.6
2022-09-29T12:50:34.900Z,26.6
2022-09-29T12:51:36.983Z,26.6
2022-09-29T12:52:38.858Z,26.6
2022-09-29T12:53:40.610Z,26.5
2022-09-29T12:54:42.427Z,26.6
2022-09-29T12:55:44.387Z,26.6
2022-09-29T12:56:46.164Z,26.5
2022-09-29T12:57:48.018Z,26.5
2022-09-29T12:58:49.759Z,26.5
2022-09-29T12:59:51.504Z,26.5
2022-09-29T13:00:53.190Z,26.5
2022-09-29T13:01:55.023Z,26.5
2022-09-29T13:02:56.855Z,26.5
2022-09-29T13:03:58.710Z,26.5
2022-09-29T13:05:00.653Z,26.4
2022-09-29T13:06:02.534Z,26.4
2022-09-29T13:07:04.349Z,26.3
2022-09-29T13:08:06.201Z,26.3
2022-09-29T13:09:07.966Z,26.3
2022-09-29T13:10:10.107Z,26.3
2022-09-29T13:11:11.992Z,26.3
2022-09-29T13:12:13.811Z,26.2
2022-09-29T13:13:15.569Z,26.3
2022-09-29T13:14:17.326Z,26.3
2022-09-29T13:15:19.155Z,26.3
2022-09-29T13:16:21.106Z,26.2
2022-09-29T13:17:23.119Z,26.2
2022-09-29T13:18:25.118Z,26.2
2022-09-29T13:19:45.987Z,26.2
2022-09-29T13:21:01.507Z,26.2
2022-09-29T13:22:03.365Z,26.2
2022-09-29T13:23:05.319Z,26.3
2022-09-29T13:24:06.988Z,26.3
2022-09-29T13:25:08.922Z,26.3
2022-09-29T13:26:10.801Z,26.3
2022-09-29T13:27:12.722Z,26.3
2022-09-29T13:28:14.607Z,26.3
2022-09-29T13:29:16.662Z,26.3
2022-09-29T13:30:18.645Z,26.3
2022-09-29T13:31:20.583Z,26.3
2022-09-29T13:32:23.100Z,26.3
2022-09-29T13:33:25.127Z,26.2
2022-09-29T13:34:26.960Z,26.2
2022-09-29T13:35:28.812Z,26.2
2022-09-29T13:36:30.566Z,26.2
2022-09-29T13:37:32.356Z,26.2
2022-09-29T13:38:34.159Z,26.2
2022-09-29T13:39:35.906Z,26.1
2022-09-29T13:40:37.679Z,26.1
2022-09-29T13:41:39.524Z,26.1
2022-09-29T13:42:41.314Z,26.1
2022-09-29T13:43:43.203Z,26.1
2022-09-29T13:44:44.949Z,26.1
2022-09-29T13:45:46.932Z,26.1
2022-09-29T13:46:49.164Z,26.1
2022-09-29T13:47:51.111Z,26.1
2022-09-29T13:48:53.001Z,26.1
2022-09-29T13:49:54.815Z,26
2022-09-29T13:50:57.384Z,26
2022-09-29T13:52:07.035Z,26
2022-09-29T13:53:08.923Z,26
2022-09-29T13:54:10.826Z,26
2022-09-29T13:55:12.668Z,26.1
2022-09-29T13:56:14.518Z,26.1
2022-09-29T13:57:16.466Z,26.1
2022-09-29T13:58:18.404Z,26